Terminal Aerodrome Forecast
Issued by NWS

Home | Current Version | Previous Version | Text Only | Print | Product List | Glossary Off
Versions: 1 2 3 4 5 6 7 8 9 10 11 12 13 14 15 16 17 18 19 20 21 22 23 24 25 26

000
FTUS41 KCLE 041700
TAFFDY
TAF
KFDY 041730Z 0418/0518 26016KT 5SM -SHRA BR SCT035 OVC060
      TEMPO 0418/0420 3SM -SHRA BR OVC035
     FM042000 24012KT P6SM VCTS SCT035CB OVC050
      TEMPO 0420/0424 5SM -SHRA BR OVC035
     FM050000 25007KT P6SM SCT025 BKN050 OVC100
     FM050300 24006KT P6SM SCT025 OVC045
      TEMPO 0503/0506 BKN025
     FM050600 27006KT P6SM VCSH OVC025
     FM051000 06006KT 5SM -SHRA OVC012=

USA.gov is the U.S. government's official web portal to all federal, state and local government web resources and services.